Blythe Airport
KBLH : now visible

Airfield :











YOU CAN JOIN US ON...

 
LOGIN :

Register | Disclaimer

   EN    FR    IT 

 









Legend :    VFR   Marginal VFR   IFR   Intensive IFR   Very Intensive IFR
Visi :
Ceiling :
>= 8 km
>= 3000ft
5 to 8 km
1000 to 3000 ft
1500m to 5 km
500 to 1000 ft
800 to 1500m
200 to 500 ft
< 800m
< 200 ft
Symbols :   Thunderstorms  Fog  Heavy snow  Heavy precipitations  Wind > 20 kt






- Airport Elevation : 399 ft


KBLH - Blythe

CURRENT METAR :
  • 131352Z AUTO 00000KT 10SM CLR 10/M08 A2998 RMK AO2 SLP149 T01001078

EXPIRED METARs :
  • 131252Z AUTO 00000KT 10SM CLR 09/M09 A2997 RMK AO2 SLP144 T00941094 $
  • 131152Z AUTO 06003KT 10SM CLR 11/M06 A2996 RMK AO2 SLP141 T01111061 10200 20111 55005 $

TAF KBLH
Valid from the 13 at 12:00 until the 14 at 12:00 UTC


131120Z 1312/1412 VRB04KT P6SM FEW250
FM132000 19004KT P6SM SCT250
FM140700 VRB04KT P6SM SCT250



MET'MAP, your aeronautical weather chart ! - Copyright ORBIFLY December 2007 - Disclaimer

ORBIFLY MET'MAP TEAM :

Programming & Development : Alexandra Zaïnal
Concept & Development : Baudouin d'Aumeries
Co-Development & Prog : Marc-Olivier Méhu
Technical & hardware support : Manuel Goepfert

Contact : metmap@orbifly.com




SOURCES & CREDITS :

   NOAA       Earth
Advisory